Time;durP1;ratioP1;P1;durP2;ratioP2;P2;SDS_P1;SDS_P2;PMS_P1;PMS_P2;Temp;Humidity;BMP_temperature;BMP_pressure;BME280_temperature;BME280_humidity;BME280_pressure;Samples;Min_cycle;Max_cycle;Signal;HPM_P1;HPM_P2
2021/09/11 00:00:06;;;;;;;9.93;8.63;;;20.50;76.70;;;20.69;60.30;97760.44;4966236;28;20057;-38
2021/09/11 00:02:33;;;;;;;9.50;7.82;;;20.50;76.60;;;20.69;59.85;97760.44;4966610;28;20699;-38
2021/09/11 00:05:02;;;;;;;11.73;8.90;;;20.50;76.30;;;20.68;59.96;97759.59;4966093;28;20054;-38
2021/09/11 00:07:32;;;;;;;9.60;8.23;;;20.50;76.20;;;20.68;59.69;97762.28;4965647;28;20051;-38
2021/09/11 00:10:00;;;;;;;11.85;8.90;;;20.50;75.80;;;20.61;59.67;97762.38;4966928;28;20043;-38
2021/09/11 00:12:27;;;;;;;10.35;8.80;;;20.40;76.00;;;20.55;59.97;97765.09;4965629;28;20387;-38
2021/09/11 00:14:55;;;;;;;9.65;7.88;;;20.30;76.40;;;20.51;59.75;97763.88;4966625;28;20232;-38
2021/09/11 00:17:24;;;;;;;9.00;8.10;;;20.20;76.50;;;20.51;59.87;97766.59;4965560;28;20051;-38
2021/09/11 00:19:52;;;;;;;8.52;7.75;;;20.20;76.60;;;20.47;60.36;97760.78;4966376;28;20054;-38
2021/09/11 00:22:21;;;;;;;10.73;8.23;;;20.20;76.80;;;20.45;60.18;97758.34;4962683;28;20065;-38
2021/09/11 00:24:48;;;;;;;9.18;8.25;;;20.20;76.90;;;20.44;60.00;97759.38;4964829;28;20050;-37
2021/09/11 00:27:16;;;;;;;12.15;8.50;;;20.20;76.60;;;20.42;60.40;97763.34;4966390;28;20253;-37
2021/09/11 00:29:44;;;;;;;9.95;7.82;;;20.10;76.80;;;20.37;60.40;97755.88;4965936;28;20074;-37
2021/09/11 00:32:12;;;;;;;9.52;8.63;;;20.10;77.00;;;20.38;60.39;97759.44;4966138;28;20070;-38
2021/09/11 00:34:40;;;;;;;8.45;7.55;;;20.20;76.80;;;20.37;60.18;97758.59;4966477;28;20054;-37
2021/09/11 00:37:08;;;;;;;9.30;7.30;;;20.10;76.80;;;20.37;60.02;97763.19;4969743;28;20256;-37
2021/09/11 00:39:36;;;;;;;9.27;8.25;;;20.10;76.80;;;20.34;60.15;97759.06;4971217;28;20055;-38
2021/09/11 00:42:04;;;;;;;8.63;7.63;;;20.10;76.90;;;20.33;60.26;97762.78;4968739;28;20049;-38
2021/09/11 00:44:32;;;;;;;9.55;8.55;;;20.00;76.90;;;20.34;60.41;97758.22;4969311;28;20054;-37
2021/09/11 00:47:00;;;;;;;10.63;8.10;;;20.10;77.00;;;20.34;60.42;97763.63;4968585;28;20255;-38
2021/09/11 00:49:28;;;;;;;10.07;8.30;;;20.10;76.80;;;20.32;60.05;97769.25;4970284;28;20058;-38
2021/09/11 00:51:56;;;;;;;8.27;7.38;;;20.10;76.80;;;20.31;60.06;97769.47;4968682;28;20061;-44
2021/09/11 00:54:24;;;;;;;8.52;7.53;;;20.00;76.70;;;20.23;60.42;97767.88;4970272;28;20081;-38
2021/09/11 00:56:52;;;;;;;8.32;7.22;;;19.90;77.10;;;20.16;60.67;97772.50;4967300;28;20066;-38
2021/09/11 00:59:19;;;;;;;10.15;8.57;;;19.80;77.70;;;20.11;60.68;97773.16;4967820;28;20511;-37
2021/09/11 01:01:47;;;;;;;11.68;8.07;;;19.70;77.90;;;20.02;60.76;97764.47;4969274;28;20060;-38
2021/09/11 01:04:16;;;;;;;8.82;7.93;;;19.70;78.20;;;20.01;60.74;97767.41;4968579;28;20047;-38
2021/09/11 01:06:44;;;;;;;8.52;7.38;;;19.70;78.30;;;20.04;60.87;97767.78;4968869;28;20038;-37
2021/09/11 01:09:14;;;;;;;9.30;8.40;;;19.70;78.00;;;20.05;60.95;97765.94;4968220;28;20069;-38
2021/09/11 01:11:42;;;;;;;9.15;7.95;;;19.80;78.00;;;20.09;60.86;97763.63;4967906;28;20230;-37
2021/09/11 01:14:10;;;;;;;8.82;7.93;;;19.80;77.90;;;20.08;61.20;97764.66;4968668;28;20058;-37
2021/09/11 01:16:38;;;;;;;9.80;7.43;;;19.80;78.00;;;20.06;61.15;97757.63;4968620;28;20054;-37
2021/09/11 01:19:06;;;;;;;9.10;8.20;;;19.80;78.00;;;20.08;61.14;97764.66;4968100;28;20241;-38
2021/09/11 01:21:34;;;;;;;10.52;7.45;;;19.80;78.20;;;20.10;61.05;97765.25;4968940;28;20065;-38
2021/09/11 01:24:02;;;;;;;9.50;7.65;;;19.90;78.20;;;20.11;60.97;97767.75;4968357;28;20047;-38
2021/09/11 01:26:30;;;;;;;7.80;7.00;;;19.90;77.90;;;20.10;60.81;97767.97;4967661;28;20379;-38
2021/09/11 01:28:58;;;;;;;9.15;8.25;;;19.80;78.00;;;20.00;61.13;97763.88;4969308;28;20054;-37
2021/09/11 01:31:36;;;;;;;8.35;7.22;;;19.60;78.80;;;19.98;61.22;97767.84;4966826;28;20051;-38
2021/09/11 01:34:04;;;;;;;8.77;7.63;;;19.70;79.30;;;19.99;61.29;97764.13;4967761;28;20050;-37
2021/09/11 01:36:32;;;;;;;8.98;8.07;;;19.70;78.90;;;19.99;61.32;97764.94;4969181;28;20062;-38
2021/09/11 01:38:59;;;;;;;9.43;7.90;;;19.70;79.00;;;19.99;61.27;97770.34;4969332;28;20100;-37
2021/09/11 01:41:27;;;;;;;8.18;7.28;;;19.70;79.00;;;19.95;61.43;97774.53;4970009;28;20050;-37
2021/09/11 01:43:56;;;;;;;8.77;7.88;;;19.60;79.10;;;19.91;61.71;97773.31;4967816;28;20084;-38
2021/09/11 01:46:23;;;;;;;9.13;8.20;;;19.60;79.40;;;19.86;61.98;97771.25;4967304;28;20054;-38
2021/09/11 01:48:51;;;;;;;10.10;9.05;;;19.50;79.80;;;19.88;61.93;97776.44;4968166;28;20058;-38
2021/09/11 01:51:19;;;;;;;9.63;8.63;;;19.60;79.80;;;19.88;61.94;97778.31;4968363;28;20047;-38
2021/09/11 01:53:47;;;;;;;9.10;7.93;;;19.60;79.90;;;19.90;62.04;97781.63;4967546;28;20057;-36
2021/09/11 01:56:15;;;;;;;9.52;8.52;;;19.60;79.80;;;19.92;61.78;97783.06;4968929;28;20065;-38
2021/09/11 01:58:42;;;;;;;12.77;7.47;;;19.70;79.50;;;19.95;61.56;97776.38;4968966;28;20242;-38
2021/09/11 02:01:10;;;;;;;7.97;7.18;;;19.70;79.00;;;19.96;61.60;97781.56;4969063;28;20065;-38
2021/09/11 02:03:38;;;;;;;7.85;7.05;;;19.80;78.70;;;19.99;61.35;97781.16;4967752;28;20053;-38
2021/09/11 02:06:06;;;;;;;8.98;6.93;;;19.80;78.20;;;19.97;61.10;97785.94;4968100;28;20076;-37
2021/09/11 02:08:34;;;;;;;9.02;6.65;;;19.80;78.10;;;19.98;61.24;97781.34;4967981;28;20233;-38
2021/09/11 02:11:02;;;;;;;8.73;7.15;;;19.80;77.90;;;19.99;61.20;97785.72;4967289;28;20053;-38
2021/09/11 02:13:30;;;;;;;7.82;7.00;;;19.80;77.70;;;20.00;60.91;97784.66;4965957;28;20376;-38
2021/09/11 02:16:01;;;;;;;7.20;6.45;;;19.80;77.60;;;19.99;60.78;97783.03;4967928;28;20077;-38
2021/09/11 02:18:30;;;;;;;7.80;6.18;;;19.80;77.50;;;20.00;60.85;97784.66;4968700;28;20256;-38
2021/09/11 02:20:58;;;;;;;8.45;5.95;;;19.80;77.40;;;19.99;60.68;97780.31;4967792;28;20272;-38
2021/09/11 02:23:26;;;;;;;8.50;6.60;;;19.80;77.30;;;19.98;60.80;97784.88;4968759;28;20051;-38
2021/09/11 02:25:54;;;;;;;6.18;5.60;;;19.80;77.40;;;19.99;60.70;97783.84;4967609;28;20345;-38
2021/09/11 02:28:21;;;;;;;6.70;5.85;;;19.80;77.10;;;19.99;60.56;97781.16;4966714;28;20057;-38
2021/09/11 02:30:49;;;;;;;6.93;6.22;;;19.80;77.10;;;19.97;60.53;97785.13;4968656;28;20047;-38
2021/09/11 02:33:17;;;;;;;7.75;6.32;;;19.70;77.00;;;19.90;60.66;97787.03;4968518;28;20277;-38
2021/09/11 02:35:45;;;;;;;8.50;6.70;;;19.60;77.40;;;19.86;60.68;97787.44;4967584;28;20362;-38
2021/09/11 02:38:14;;;;;;;7.22;6.15;;;19.50;77.80;;;19.77;60.92;97777.13;4968880;28;20065;-38
2021/09/11 02:40:42;;;;;;;8.18;6.28;;;19.40;78.40;;;19.74;61.06;97783.78;4967396;28;20253;-38
2021/09/11 02:43:10;;;;;;;7.13;6.43;;;19.40;78.40;;;19.74;61.37;97778.41;4966185;28;20050;-38
2021/09/11 02:45:38;;;;;;;7.35;6.60;;;19.40;78.50;;;19.67;61.40;97782.97;4967589;28;20065;-38
2021/09/11 02:48:06;;;;;;;7.47;6.55;;;19.40;79.00;;;19.62;61.58;97780.91;4967898;28;20441;-38
2021/09/11 02:50:34;;;;;;;7.35;6.38;;;19.30;79.30;;;19.60;61.62;97788.41;4967928;28;20104;-38
2021/09/11 02:53:02;;;;;;;7.40;6.47;;;19.30;79.20;;;19.59;61.60;97789.44;4966488;28;20051;-38
2021/09/11 02:55:29;;;;;;;9.05;7.28;;;19.30;79.40;;;19.57;61.69;97794.22;4968657;28;20063;-38
2021/09/11 02:57:57;;;;;;;7.60;6.53;;;19.30;79.40;;;19.61;61.82;97790.06;4967997;28;20456;-38
2021/09/11 03:00:25;;;;;;;7.45;6.75;;;19.40;79.10;;;19.62;61.60;97793.59;4966866;28;20057;-38
2021/09/11 03:02:53;;;;;;;7.10;6.40;;;19.30;79.20;;;19.62;61.75;97791.72;4965978;28;20070;-38
2021/09/11 03:05:22;;;;;;;8.65;6.97;;;19.40;79.10;;;19.65;61.62;97779.66;4965632;28;20057;-38
2021/09/11 03:07:50;;;;;;;7.57;6.78;;;19.40;79.10;;;19.64;61.57;97781.53;4966216;28;20062;-38
2021/09/11 03:10:18;;;;;;;7.93;7.13;;;19.40;78.80;;;19.58;61.68;97787.78;4967258;28;20053;-38
2021/09/11 03:12:46;;;;;;;8.45;6.93;;;19.30;79.40;;;19.50;62.06;97779.09;4965923;28;20062;-38
2021/09/11 03:15:14;;;;;;;7.47;6.32;;;19.10;79.90;;;19.48;61.95;97777.47;4966663;28;20050;-38
2021/09/11 03:17:42;;;;;;;7.68;6.30;;;19.20;80.10;;;19.52;61.82;97779.72;4966866;28;20080;-38
2021/09/11 03:20:11;;;;;;;6.95;6.25;;;19.20;79.90;;;19.55;62.00;97771.19;4967362;28;20276;-38
2021/09/11 03:22:38;;;;;;;9.60;6.72;;;19.30;79.70;;;19.57;62.15;97774.50;4964907;28;20055;-38
2021/09/11 03:25:07;;;;;;;7.63;5.85;;;19.40;79.60;;;19.62;62.19;97777.41;4966267;28;20048;-38
2021/09/11 03:27:35;;;;;;;7.15;6.20;;;19.40;79.40;;;19.64;62.20;97773.44;4966763;28;20073;-38
2021/09/11 03:30:03;;;;;;;6.90;6.13;;;19.50;79.30;;;19.63;62.00;97776.34;4967704;28;20053;-36
2021/09/11 03:32:31;;;;;;;9.10;7.32;;;19.40;79.20;;;19.62;62.09;97783.63;4967141;28;20515;-38
2021/09/11 03:34:59;;;;;;;8.25;6.40;;;19.40;79.30;;;19.60;62.05;97779.47;4980161;28;20077;-39
2021/09/11 03:37:27;;;;;;;6.70;6.00;;;19.40;79.40;;;19.60;62.14;97787.56;4965847;28;20202;-36
2021/09/11 03:39:55;;;;;;;7.03;6.20;;;19.40;79.40;;;19.59;62.15;97785.91;4966547;28;20057;-39
2021/09/11 03:42:23;;;;;;;7.68;6.07;;;19.40;79.50;;;19.59;62.14;97777.81;4966773;28;20051;-37
2021/09/11 03:44:51;;;;;;;8.88;5.95;;;19.40;79.60;;;19.58;62.16;97777.00;4965620;28;20055;-37
2021/09/11 03:47:19;;;;;;;6.97;6.00;;;19.40;79.40;;;19.59;62.14;97772.41;4965475;28;20210;-37
2021/09/11 03:49:47;;;;;;;6.68;5.95;;;19.40;79.40;;;19.62;61.98;97778.22;4981656;28;20264;-37
2021/09/11 03:52:15;;;;;;;6.72;6.03;;;19.40;79.20;;;19.65;61.91;97777.78;4965688;28;20240;-37
2021/09/11 03:54:42;;;;;;;7.40;5.97;;;19.40;79.10;;;19.67;61.91;97777.56;4965397;28;20266;-36
2021/09/11 03:57:10;;;;;;;7.40;6.70;;;19.50;79.00;;;19.60;62.01;97779.47;4965856;28;20062;-36
2021/09/11 03:59:38;;;;;;;7.95;6.22;;;19.40;79.30;;;19.53;62.04;97781.38;4967170;28;20055;-36
2021/09/11 04:02:06;;;;;;;7.75;6.65;;;19.20;79.70;;;19.45;62.03;97779.75;4965942;28;20268;-36
2021/09/11 04:04:34;;;;;;;7.70;6.25;;;19.10;80.20;;;19.44;62.33;97780.78;4965226;28;20035;-36
2021/09/11 04:07:03;;;;;;;7.20;6.40;;;19.10;80.30;;;19.44;62.35;97784.34;4965841;28;20058;-37
2021/09/11 04:09:30;;;;;;;8.60;6.47;;;19.20;80.30;;;19.48;62.25;97785.56;4967922;28;20049;-36
2021/09/11 04:11:58;;;;;;;7.82;6.97;;;19.20;80.10;;;19.54;62.45;97783.03;4969961;28;20059;-36
2021/09/11 04:14:26;;;;;;;7.82;6.50;;;19.30;80.20;;;19.59;62.54;97785.91;4969017;28;20069;-37
2021/09/11 04:16:54;;;;;;;8.82;7.10;;;19.40;80.00;;;19.63;62.71;97781.75;4969682;28;20063;-37
2021/09/11 04:19:22;;;;;;;8.25;7.10;;;19.50;80.40;;;19.63;62.88;97784.44;4969095;28;20038;-37
2021/09/11 04:21:50;;;;;;;8.23;7.00;;;19.40;80.50;;;19.59;63.10;97786.75;4969646;28;20364;-37
2021/09/11 04:24:18;;;;;;;8.15;7.35;;;19.40;81.30;;;19.55;63.28;97790.91;4970137;28;20054;-37
2021/09/11 04:26:46;;;;;;;8.38;7.50;;;19.30;82.00;;;19.54;63.64;97791.13;4969370;28;20065;-37
2021/09/11 04:29:14;;;;;;;8.85;7.10;;;19.30;82.40;;;19.53;63.75;97793.00;4969359;28;20077;-37
2021/09/11 04:31:42;;;;;;;10.40;7.38;;;19.30;82.70;;;19.51;63.83;97788.88;4970125;28;20272;-37
2021/09/11 04:34:10;;;;;;;6.70;6.00;;;19.30;83.00;;;19.51;63.68;97791.56;4970348;28;20058;-37
2021/09/11 04:36:38;;;;;;;7.47;6.68;;;19.30;83.20;;;19.51;64.07;97788.88;4968767;28;20070;-36
2021/09/11 04:39:05;;;;;;;8.73;6.35;;;19.30;83.50;;;19.47;63.91;97793.88;4969246;28;20065;-36
2021/09/11 04:41:33;;;;;;;6.93;6.22;;;19.20;83.60;;;19.50;64.02;97801.53;4970708;28;20505;-37
2021/09/11 04:44:01;;;;;;;9.70;6.90;;;19.30;83.60;;;19.55;64.04;97801.72;4969847;28;20050;-37
2021/09/11 04:46:29;;;;;;;7.38;6.68;;;19.40;83.60;;;19.57;63.95;97798.81;4969738;28;20256;-37
2021/09/11 04:48:57;;;;;;;7.45;6.75;;;19.30;83.50;;;19.57;63.99;97801.50;4969019;28;20065;-37
2021/09/11 04:51:25;;;;;;;7.28;6.50;;;19.40;83.40;;;19.53;64.09;97803.81;4970020;28;20190;-37
2021/09/11 04:53:53;;;;;;;9.65;7.80;;;19.30;83.60;;;19.51;64.14;97800.50;4968227;28;20058;-37
2021/09/11 04:56:21;;;;;;;10.70;7.25;;;19.30;84.10;;;19.50;64.31;97803.41;4968380;28;20068;-37
2021/09/11 04:58:49;;;;;;;7.78;6.95;;;19.20;84.20;;;19.46;64.46;97803.84;4970021;28;20271;-37
2021/09/11 05:01:17;;;;;;;10.80;7.18;;;19.20;84.40;;;19.45;64.50;97804.88;4970006;28;20055;-37
2021/09/11 05:03:45;;;;;;;7.93;7.13;;;19.20;84.50;;;19.46;64.43;97803.00;4969326;28;20778;-37
2021/09/11 05:06:13;;;;;;;8.02;7.20;;;19.20;84.50;;;19.47;64.49;97807.38;4968721;28;20222;-37
2021/09/11 05:08:41;;;;;;;8.68;7.70;;;19.20;84.50;;;19.48;64.54;97801.75;4968063;28;20069;-37
2021/09/11 05:11:09;;;;;;;7.80;7.00;;;19.30;84.70;;;19.50;64.57;97806.09;4969958;28;20242;-37
2021/09/11 05:13:37;;;;;;;7.18;6.28;;;19.30;84.70;;;19.52;64.45;97812.13;4968434;28;20334;-37
2021/09/11 05:16:05;;;;;;;7.70;6.90;;;19.30;84.60;;;19.50;64.61;97808.81;4969395;28;20061;-37
2021/09/11 05:18:34;;;;;;;7.88;7.07;;;19.20;84.80;;;19.46;64.53;97811.09;4967589;28;20064;-37
2021/09/11 05:21:08;;;;;;;7.05;6.32;;;19.20;85.20;;;19.43;64.72;97816.94;4969351;28;20081;-37
2021/09/11 05:23:36;;;;;;;9.68;5.72;;;19.20;85.80;;;19.44;64.81;97821.28;4969057;28;20261;-37
2021/09/11 05:26:05;;;;;;;8.18;6.20;;;19.10;85.20;;;19.45;64.73;97812.16;4968971;28;20065;-37
2021/09/11 05:28:33;;;;;;;7.45;6.57;;;19.20;85.40;;;19.44;64.88;97814.03;4968495;28;20050;-37
2021/09/11 05:31:01;;;;;;;6.25;5.65;;;19.20;85.20;;;19.44;64.61;97808.63;4968482;28;20230;-37
2021/09/11 05:33:29;;;;;;;7.75;6.50;;;19.20;85.50;;;19.42;64.82;97813.38;4999313;28;20049;-37
2021/09/11 05:35:57;;;;;;;7.82;6.38;;;19.20;85.10;;;19.38;64.66;97814.88;4968422;28;20077;-37
2021/09/11 05:38:25;;;;;;;6.65;5.95;;;19.10;85.10;;;19.42;64.75;97812.56;4967955;28;20051;-37
2021/09/11 05:40:53;;;;;;;6.93;6.18;;;19.20;85.00;;;19.42;64.63;97815.28;4969478;28;20061;-37
2021/09/11 05:43:20;;;;;;;7.25;6.45;;;19.20;84.90;;;19.42;64.71;97817.97;4968262;28;20065;-37
2021/09/11 05:45:48;;;;;;;6.07;5.47;;;19.20;84.80;;;19.42;64.59;97817.97;4968807;28;20526;-37
2021/09/11 05:48:16;;;;;;;6.90;5.47;;;19.20;84.90;;;19.42;64.74;97818.78;4967248;28;20066;-36
2021/09/11 05:50:44;;;;;;;7.32;6.60;;;19.20;85.00;;;19.40;64.78;97820.88;4968933;28;20055;-36
2021/09/11 05:53:12;;;;;;;8.70;5.97;;;19.20;85.00;;;19.40;64.85;97820.06;4966785;28;20054;-40
2021/09/11 05:55:40;;;;;;;6.68;5.75;;;19.20;85.10;;;19.42;64.75;97823.38;4968182;28;20216;-37
2021/09/11 05:58:08;;;;;;;5.88;5.28;;;19.20;85.10;;;19.43;64.81;97817.75;4968801;28;20053;-37
2021/09/11 06:00:36;;;;;;;7.90;6.90;;;19.20;84.90;;;19.46;64.84;97827.28;4969960;28;20059;-37
2021/09/11 06:03:04;;;;;;;7.07;5.53;;;19.30;85.00;;;19.48;64.78;97827.91;4965173;28;20066;-37
2021/09/11 06:05:32;;;;;;;7.93;6.32;;;19.30;85.00;;;19.52;64.71;97826.44;4967530;28;20352;-37
2021/09/11 06:08:00;;;;;;;7.20;6.07;;;19.40;85.00;;;19.52;64.89;97834.53;4967318;28;20089;-38
2021/09/11 06:10:28;;;;;;;8.70;6.97;;;19.30;85.20;;;19.50;64.83;97831.22;4968241;28;20054;-38
2021/09/11 06:12:56;;;;;;;7.20;6.40;;;19.30;85.40;;;19.53;64.96;97830.81;4967710;28;20057;-38
2021/09/11 06:15:24;;;;;;;7.50;6.13;;;19.30;85.20;;;19.56;64.84;97830.38;4981544;28;20257;-37
2021/09/11 06:17:53;;;;;;;7.53;6.35;;;19.40;85.30;;;19.59;64.92;97835.34;4966866;28;20053;-37
2021/09/11 06:20:21;;;;;;;6.13;5.43;;;19.40;85.10;;;19.60;64.82;97836.16;4968279;28;20065;-37
2021/09/11 06:22:49;;;;;;;5.35;4.80;;;19.40;84.90;;;19.55;64.73;97833.31;4966718;28;20109;-37
2021/09/11 06:25:18;;;;;;;6.03;5.35;;;19.30;84.70;;;19.56;64.73;97840.34;4965592;28;20043;-37
2021/09/11 06:27:45;;;;;;;7.45;5.68;;;19.40;84.80;;;19.57;64.79;97837.44;4968033;28;20826;-37
2021/09/11 06:30:14;;;;;;;5.75;4.90;;;19.40;84.60;;;19.55;64.72;97836.00;4967817;28;20047;-37
2021/09/11 06:32:42;;;;;;;5.05;4.55;;;19.40;84.70;;;19.55;64.92;97833.31;4966895;28;20057;-37
2021/09/11 06:35:09;;;;;;;6.05;4.65;;;19.40;84.90;;;19.54;64.88;97840.59;4967896;28;20433;-37
2021/09/11 06:37:37;;;;;;;6.40;5.03;;;19.40;85.00;;;19.54;65.04;97828.94;4968910;28;20051;-36
2021/09/11 06:40:07;;;;;;;5.20;4.70;;;19.40;85.10;;;19.55;65.03;97834.13;4966747;28;20360;-37
2021/09/11 06:42:35;;;;;;;6.13;5.53;;;19.40;85.20;;;19.58;65.05;97832.84;4965862;28;20073;-37
2021/09/11 06:45:03;;;;;;;6.95;5.55;;;19.40;85.00;;;19.61;65.25;97844.06;4966801;28;20186;-37
2021/09/11 06:47:31;;;;;;;5.95;4.35;;;19.50;85.00;;;19.60;65.16;97845.13;4966153;28;20236;-37
2021/09/11 06:49:58;;;;;;;5.32;4.75;;;19.50;85.10;;;19.62;65.18;97834.09;4948815;28;20055;-37
2021/09/11 06:52:26;;;;;;;5.47;4.38;;;19.50;85.10;;;19.67;65.23;97834.28;4966186;28;20081;-37
2021/09/11 06:54:54;;;;;;;7.22;5.15;;;19.60;85.00;;;19.77;65.19;97839.25;4966290;28;20061;-37
2021/09/11 06:57:22;;;;;;;6.22;5.32;;;19.70;84.80;;;19.83;65.12;97851.88;4962686;28;20059;-37
2021/09/11 06:59:50;;;;;;;6.22;5.28;;;19.80;84.60;;;19.86;65.37;97844.19;4975370;28;20062;-38
2021/09/11 07:02:18;;;;;;;5.85;5.25;;;19.90;84.70;;;19.90;65.38;97844.59;4984264;28;20061;-38
2021/09/11 07:04:46;;;;;;;6.15;5.22;;;19.80;84.70;;;19.93;65.20;97835.22;4986226;28;20065;-37
2021/09/11 07:07:14;;;;;;;7.25;5.00;;;19.90;84.70;;;19.98;65.18;97838.91;4986658;28;20072;-37
2021/09/11 07:09:41;;;;;;;5.88;5.28;;;20.00;84.60;;;20.03;65.23;97841.81;4986624;28;20335;-37
2021/09/11 07:12:09;;;;;;;6.95;5.57;;;20.10;84.30;;;20.06;65.05;97835.13;4986569;28;20488;-37
2021/09/11 07:14:37;;;;;;;5.63;4.72;;;20.10;84.20;;;20.10;64.95;97841.75;4986909;28;20333;-37
2021/09/11 07:17:05;;;;;;;6.40;5.30;;;20.10;84.20;;;20.15;65.05;97849.22;4985544;28;20050;-37
2021/09/11 07:19:33;;;;;;;5.97;5.13;;;20.20;84.10;;;20.21;64.92;97848.34;4985778;28;20340;-37
2021/09/11 07:22:00;;;;;;;7.47;4.95;;;20.20;84.00;;;20.23;64.58;97854.38;4985655;28;20046;-37
2021/09/11 07:24:28;;;;;;;6.22;4.60;;;20.20;83.90;;;20.25;64.66;97854.97;4985193;28;20053;-37
2021/09/11 07:26:56;;;;;;;5.53;4.63;;;20.30;83.90;;;20.29;64.98;97856.19;4985837;28;20240;-37
2021/09/11 07:29:24;;;;;;;5.15;4.22;;;20.30;83.80;;;20.31;64.69;97856.81;4986627;28;20058;-37
2021/09/11 07:31:52;;;;;;;6.15;3.95;;;20.30;83.40;;;20.35;64.21;97854.50;4986267;28;20062;-37
2021/09/11 07:34:20;;;;;;;4.88;4.18;;;20.30;83.20;;;20.39;64.60;97863.81;4985396;28;20064;-37
2021/09/11 07:36:48;;;;;;;4.63;3.67;;;20.40;83.10;;;20.41;64.01;97859.88;4973828;28;20058;-37
2021/09/11 07:39:16;;;;;;;6.28;4.43;;;20.40;82.50;;;20.48;64.22;97859.81;4966437;28;20055;-37
2021/09/11 07:41:44;;;;;;;5.15;3.85;;;20.50;82.30;;;20.52;64.03;97868.31;4966225;28;20050;-37
2021/09/11 07:44:12;;;;;;;5.28;4.13;;;20.60;82.10;;;20.55;63.96;97873.25;4965162;28;20073;-37
2021/09/11 07:46:40;;;;;;;4.57;4.18;;;20.70;82.20;;;20.59;63.64;97871.81;4965615;28;20051;-37
2021/09/11 07:49:08;;;;;;;5.35;4.30;;;20.70;81.80;;;20.62;63.82;97868.69;4966086;28;20053;-37
2021/09/11 07:51:36;;;;;;;7.30;4.05;;;20.70;81.70;;;20.62;63.53;97874.91;4965793;28;20321;-37
2021/09/11 07:54:03;;;;;;;4.40;3.33;;;20.60;81.80;;;20.60;63.65;97870.78;4965707;28;20053;-37
2021/09/11 07:56:31;;;;;;;4.00;3.45;;;20.60;81.60;;;20.60;63.15;97870.78;4966949;28;20598;-37
2021/09/11 07:58:59;;;;;;;5.10;3.50;;;20.60;81.30;;;20.63;63.39;97875.75;4963979;28;20063;-37
2021/09/11 08:01:27;;;;;;;5.05;3.78;;;20.60;81.30;;;20.66;62.93;97878.00;4965530;28;20043;-37
2021/09/11 08:03:55;;;;;;;5.72;4.05;;;20.60;81.20;;;20.65;63.03;97874.47;4964228;28;20062;-37
2021/09/11 08:06:23;;;;;;;4.20;3.58;;;20.60;81.00;;;20.68;63.60;97877.78;4965105;28;20045;-37
2021/09/11 08:08:51;;;;;;;4.72;3.97;;;20.70;81.30;;;20.70;63.02;97881.09;4965835;28;20054;-37
2021/09/11 08:11:19;;;;;;;4.53;3.90;;;20.70;81.00;;;20.70;63.00;97884.63;4965129;28;20066;-37
2021/09/11 08:13:47;;;;;;;4.78;3.65;;;20.80;80.70;;;20.74;62.84;97879.59;4987000;28;20058;-37
2021/09/11 08:16:15;;;;;;;4.70;3.70;;;20.80;80.50;;;20.77;63.28;97885.41;4964664;28;20248;-37
2021/09/11 08:18:43;;;;;;;5.45;3.70;;;20.80;80.60;;;20.84;63.25;97891.59;4964980;28;20353;-37
2021/09/11 08:21:11;;;;;;;4.90;3.55;;;20.90;80.50;;;20.89;62.37;97895.53;4965321;28;20073;-37
2021/09/11 08:23:41;;;;;;;4.13;3.30;;;21.00;80.00;;;20.87;62.41;97887.63;4966172;28;20066;-37
2021/09/11 08:26:10;;;;;;;5.53;3.28;;;20.90;80.00;;;20.90;62.26;97891.75;4967055;28;20046;-37
2021/09/11 08:28:38;;;;;;;4.07;3.42;;;21.00;79.60;;;20.93;62.22;97894.03;4965726;28;20046;-37
2021/09/11 08:31:06;;;;;;;4.40;3.78;;;21.00;79.70;;;20.94;62.66;97888.41;4963897;28;20229;-37
2021/09/11 08:33:34;;;;;;;4.32;3.22;;;21.00;79.90;;;20.98;62.35;97886.91;4965777;28;20038;-37
2021/09/11 08:36:02;;;;;;;4.03;2.88;;;21.10;79.60;;;21.07;62.27;97897.44;4965397;28;20065;-37
2021/09/11 08:38:34;;;;;;;4.30;3.08;;;21.30;79.00;;;21.14;62.09;97893.63;4964695;28;20223;-37
2021/09/11 08:41:06;;;;;;;5.25;3.30;;;21.30;78.70;;;21.20;61.89;97897.31;4967115;28;20082;-37
2021/09/11 08:43:35;;;;;;;4.28;3.10;;;21.40;78.20;;;21.29;62.03;97900.56;4964508;28;20063;-37
2021/09/11 08:46:05;;;;;;;4.20;2.80;;;21.60;78.00;;;21.30;61.57;97892.19;4965081;28;20051;-37
2021/09/11 08:48:34;;;;;;;3.60;2.95;;;21.50;77.40;;;21.34;61.47;97893.41;4964117;28;20051;-37
2021/09/11 08:51:02;;;;;;;3.65;3.05;;;21.50;77.50;;;21.42;61.73;97897.69;4965590;28;20055;-37
2021/09/11 08:53:31;;;;;;;4.07;3.20;;;21.70;77.50;;;21.49;61.24;97895.78;4965783;28;20046;-37
2021/09/11 08:55:58;;;;;;;3.35;2.78;;;21.70;76.60;;;21.52;61.00;97892.63;4966393;28;20050;-37
2021/09/11 08:58:26;;;;;;;4.07;3.20;;;21.70;76.30;;;21.58;60.59;97880.06;4968497;28;20158;-37
2021/09/11 09:01:02;;;;;;;4.13;3.03;;;21.80;76.10;;;21.66;60.74;97890.59;4968069;28;20250;-37
2021/09/11 09:03:41;;;;;;;3.88;2.83;;;21.90;75.60;;;21.72;60.41;97886.97;4969586;28;20054;-37
2021/09/11 09:06:33;;;;;;;3.78;2.90;;;22.00;74.70;;;21.77;59.93;97887.13;4967600;28;20051;-37
2021/09/11 09:09:10;;;;;;;3.28;2.95;;;22.00;73.20;;;21.85;60.14;97891.41;4968226;28;20057;-37
2021/09/11 09:11:45;;;;;;;3.97;3.42;;;22.10;74.10;;;21.86;59.38;97892.25;4969209;28;20228;-37
2021/09/11 09:14:18;;;;;;;4.07;3.67;;;22.00;74.10;;;21.74;59.01;97889.47;4968919;28;20675;-37
2021/09/11 09:16:53;;;;;;;4.22;3.30;;;21.80;73.80;;;21.61;58.99;97883.13;4968264;28;20057;-37
2021/09/11 09:19:25;;;;;;;3.75;2.90;;;21.70;74.30;;;21.62;59.18;97886.69;4968439;28;20066;-37
2021/09/11 09:21:59;;;;;;;4.65;3.58;;;21.60;74.70;;;21.61;59.74;97893.97;4968799;28;20057;-38
2021/09/11 09:24:32;;;;;;;4.20;3.22;;;21.60;75.20;;;21.68;59.80;97893.09;4965553;28;20252;-37
2021/09/11 09:27:08;;;;;;;4.50;3.17;;;21.80;75.10;;;21.75;59.98;97885.69;4968532;28;20058;-37
2021/09/11 09:29:40;;;;;;;4.72;3.83;;;21.90;74.60;;;21.83;59.62;97885.41;4968956;28;20061;-38
2021/09/11 09:32:09;;;;;;;3.58;3.05;;;22.00;74.20;;;21.87;59.10;97886.59;4968018;28;20142;-37
2021/09/11 09:34:41;;;;;;;5.82;3.50;;;22.00;74.20;;;21.95;59.23;97880.03;4967445;28;20055;-37
2021/09/11 09:37:14;;;;;;;4.35;3.95;;;22.20;74.30;;;21.97;59.11;97886.06;4967514;28;20069;-38
2021/09/11 09:39:50;;;;;;;4.38;3.97;;;22.20;73.10;;;21.85;59.51;97883.28;4970095;28;20066;-38
2021/09/11 09:42:19;;;;;;;4.97;3.15;;;22.00;75.20;;;21.95;60.14;97885.47;4967459;28;20073;-38
2021/09/11 09:44:50;;;;;;;4.65;4.03;;;22.10;75.40;;;21.97;60.06;97880.63;4967328;28;20360;-38
2021/09/11 09:47:24;;;;;;;6.60;4.03;;;22.20;75.00;;;22.00;59.71;97880.16;4968485;28;20563;-38
2021/09/11 09:50:17;;;;;;;5.10;4.60;;;22.20;75.30;;;22.07;59.80;97885.50;4968500;28;20061;-38
2021/09/11 09:52:45;;;;;;;5.28;4.45;;;22.30;75.80;;;22.07;59.66;97889.03;4967495;28;20065;-38
2021/09/11 09:55:15;;;;;;;5.25;4.75;;;22.20;75.30;;;21.92;60.30;97886.72;4966965;28;20363;-38
2021/09/11 09:57:44;;;;;;;4.40;3.90;;;22.00;76.10;;;21.95;60.31;97886.28;4965701;28;20260;-38
2021/09/11 10:00:12;;;;;;;4.50;3.88;;;22.10;75.80;;;21.95;60.03;97883.56;4967038;28;20340;-38
2021/09/11 10:02:41;;;;;;;5.22;4.72;;;22.20;75.70;;;22.01;60.30;97885.34;4966930;28;20069;-38
2021/09/11 10:05:14;;;;;;;5.65;4.40;;;22.30;75.80;;;22.08;59.97;97885.28;4966404;28;20058;-38
2021/09/11 10:08:06;;;;;;;5.63;5.13;;;22.30;75.60;;;22.12;59.81;97881.06;4965547;28;20250;-37
2021/09/11 10:10:45;;;;;;;5.10;3.88;;;22.30;75.10;;;22.19;59.76;97875.53;4967559;28;20253;-37
2021/09/11 10:13:23;;;;;;;5.50;3.78;;;22.40;74.70;;;22.07;59.67;97877.38;4966816;28;20050;-37
2021/09/11 10:16:11;;;;;;;6.25;4.45;;;22.30;75.10;;;22.16;60.14;97874.13;4967520;28;20227;-37
2021/09/11 10:18:40;;;;;;;4.95;4.45;;;22.30;75.90;;;22.09;59.23;97872.56;4968037;28;20061;-37
2021/09/11 10:21:28;;;;;;;4.47;4.00;;;22.20;74.30;;;22.19;59.47;97879.06;4968379;28;20438;-37
2021/09/11 10:23:56;;;;;;;5.80;4.25;;;22.30;74.70;;;22.10;59.01;97875.03;4967021;28;20450;-37